Etusivu
METAR-TAF:

METAR-TAF

Lentoasemat :

Lontoo Biggin Hill, Englanti

Leveyspiiri: 51-19N, Pituuspiiri: 000-02E, korkeus merenpinnasta: 183 m

Tämänhetkinen sää

Tämä raportti tehtiin 2 tuntia ja 33 minuuttia sitten, kello 22.50 UTC
Tuuli 10 kn etelästä/lounaasta
Lämpötila 6°C
Kosteus 93%
Ilmanpaine 1019 hPa
Näkyvyys 10 km tai enemmän
ei pilviä alle 1500 m:ssä eikä cumulonimbus-pilviä

METAR: EGKB 192250Z 20010KT CAVOK 06/05 Q1019

Aika: 01:23 (01:23 UTC)

Sääennuste

Tämä raportti tehtiin 5 tuntia ja 18 minuuttia sitten, kello 20.05 UTC
Ennuste voimassa 19. päivästä klo 21 UTC - 19. päivään klo 23 UTC
Tuuli 9 kn etelästä/lounaasta
Näkyvyys 10 km tai enemmän
Muutamia pilviä 3000 ft:n korkeudessa

TAF: EGKB 192005Z 1921/1923 21009KT 9999 FEW030

Säähavainnot ja -ennusteet yli 4000 lentoasemalta (METAR- ja TAF-raportit).

Käytössä olevat sääasemat on merkitty karttaan keltaisilla ja punaisilla pisteillä.

Aseta hiiri pisteen päälle nähdäksesi sääaseman nimen.

Klikkaa sitten nähdäksesi säähavainnot ja -ennusteet.

Kartan vaihtaminen: klikkaa mustalla rastilla varustettuja vihreitä pisteitä, niin voit zoomata sisään; viivalla varustettua vihreää pistettä, niin voit zoomata ulos tai vihreitä nuolia, niin pääset viereisille kartoille.


METAR-TAF: